Mesquite, Texas
Current Conditions -  °F | °C
As of 5:50 PM on Saturday 25 Oct 2014 (Local Time) from KHQZ Reporting Station
Clear Clear  
Wind Chill: 84°   Ceiling: Unl
Heat Index: 84°   Visibility: 10mi
Dew Point: 57°   Wind: 6mph
Humidity: 40%   Direction: 180°S
Pressure: 30.05"   Gusts: NA
Location:  32.78°N, 96.6°W
Report Text: KHQZ 252250Z 18005KT 10SM CLR 29/14 A3005
Loading
Personal Weather Stations






























Interactive Weather Map
Tropical Storm Tracking
New forecast layout! Learn more

10-Day Weather Forecast

Advertisements
Track Severe Weather on mobile